Time;durP1;ratioP1;P1;durP2;ratioP2;P2;SDS_P1;SDS_P2;PMS_P1;PMS_P2;Temp;Humidity;BMP_temperature;BMP_pressure;BME280_temperature;BME280_humidity;BME280_pressure;Samples;Min_cycle;Max_cycle;Signal;HPM_P1;HPM_P2
2024/04/03 00:02:03;;;;;;;;;;;;;;;;;;5093972;28;19908;-69
2024/04/03 00:04:29;;;;;;;;;;;;;;;;;;5093256;28;20275;-69
2024/04/03 00:06:57;;;;;;;;;;;;;;;;;;5094162;28;20357;-69
2024/04/03 00:09:23;;;;;;;;;;;;;;;;;;5093875;28;19909;-69
2024/04/03 00:11:49;;;;;;;;;;;;;;;;;;5093313;28;19908;-69
2024/04/03 00:14:15;;;;;;;;;;;;;;;;;;5093719;28;19908;-69
2024/04/03 00:16:41;;;;;;;;;;;;;;;;;;5093746;28;19912;-69
2024/04/03 00:19:07;;;;;;;;;;;;;;;;;;5091956;28;19908;-70
2024/04/03 00:21:33;;;;;;;;;;;;;;;;;;5093842;28;19908;-69
2024/04/03 00:23:59;;;;;;;;;;;;;;;;;;5093587;28;20009;-69
2024/04/03 00:26:25;;;;;;;;;;;;;;;;;;5093205;28;19919;-70
2024/04/03 00:28:51;;;;;;;;;;;;;;;;;;5093617;28;19908;-70
2024/04/03 00:31:17;;;;;;;;;;;;;;;;;;5094554;28;19908;-69
2024/04/03 00:33:43;;;;;;;;;;;;;;;;;;5096019;28;19954;-69
2024/04/03 00:36:09;;;;;;;;;;;;;;;;;;5097329;28;19920;-69
2024/04/03 00:38:35;;;;;;;;;;;;;;;;;;5096891;28;19908;-69
2024/04/03 00:41:01;;;;;;;;;;;;;;;;;;5097233;28;19908;-69
2024/04/03 00:43:27;;;;;;;;;;;;;;;;;;5097267;28;19908;-69
2024/04/03 00:45:53;;;;;;;;;;;;;;;;;;5096557;28;19956;-69
2024/04/03 00:48:19;;;;;;;;;;;;;;;;;;5097128;28;19912;-69
2024/04/03 00:50:45;;;;;;;;;;;;;;;;;;5097043;28;20376;-69
2024/04/03 00:53:11;;;;;;;;;;;;;;;;;;5095326;28;19995;-69
2024/04/03 00:55:37;;;;;;;;;;;;;;;;;;5097012;28;19908;-69
2024/04/03 00:58:03;;;;;;;;;;;;;;;;;;5095547;28;19915;-69
2024/04/03 01:00:29;;;;;;;;;;;;;;;;;;5096626;28;20391;-69
2024/04/03 01:02:55;;;;;;;;;;;;;;;;;;5096900;28;19915;-69
2024/04/03 01:05:21;;;;;;;;;;;;;;;;;;5096698;28;19923;-69
2024/04/03 01:07:47;;;;;;;;;;;;;;;;;;5096355;28;19914;-69
2024/04/03 01:10:12;;;;;;;;;;;;;;;;;;5096774;28;19969;-68
2024/04/03 01:12:38;;;;;;;;;;;;;;;;;;5096616;28;19916;-68
2024/04/03 01:15:04;;;;;;;;;;;;;;;;;;5096318;28;19908;-68
2024/04/03 01:17:30;;;;;;;;;;;;;;;;;;5096685;28;19915;-68
2024/04/03 01:19:56;;;;;;;;;;;;;;;;;;5095522;28;19915;-68
2024/04/03 01:22:22;;;;;;;;;;;;;;;;;;5094767;28;19908;-68
2024/04/03 01:24:48;;;;;;;;;;;;;;;;;;5096330;28;19931;-68
2024/04/03 01:27:14;;;;;;;;;;;;;;;;;;5096445;28;19908;-68
2024/04/03 01:29:40;;;;;;;;;;;;;;;;;;5095954;28;19915;-69
2024/04/03 01:32:06;;;;;;;;;;;;;;;;;;5096349;28;19956;-69
2024/04/03 01:34:32;;;;;;;;;;;;;;;;;;5094957;28;20296;-68
2024/04/03 01:36:58;;;;;;;;;;;;;;;;;;5095702;28;20268;-68
2024/04/03 01:39:24;;;;;;;;;;;;;;;;;;5096230;28;19908;-68
2024/04/03 01:41:50;;;;;;;;;;;;;;;;;;5095964;28;19908;-68
2024/04/03 01:44:16;;;;;;;;;;;;;;;;;;5095946;28;19916;-68
2024/04/03 01:46:42;;;;;;;;;;;;;;;;;;5095993;28;19962;-68
2024/04/03 01:49:08;;;;;;;;;;;;;;;;;;5095505;28;20334;-68
2024/04/03 01:51:33;;;;;;;;;;;;;;;;;;5094544;28;19908;-68
2024/04/03 01:53:59;;;;;;;;;;;;;;;;;;5095951;28;19908;-68
2024/04/03 01:56:25;;;;;;;;;;;;;;;;;;5095388;28;19915;-68
2024/04/03 01:58:51;;;;;;;;;;;;;;;;;;5095801;28;19911;-68
2024/04/03 02:01:19;;;;;;;;;;;;;;;;;;5095719;28;19991;-69
2024/04/03 02:03:45;;;;;;;;;;;;;;;;;;5095221;28;19908;-68
2024/04/03 02:06:11;;;;;;;;;;;;;;;;;;5095578;28;19923;-68
2024/04/03 02:08:37;;;;;;;;;;;;;;;;;;5095622;28;19915;-68
2024/04/03 02:11:03;;;;;;;;;;;;;;;;;;5095360;28;20391;-68
2024/04/03 02:13:29;;;;;;;;;;;;;;;;;;5095541;28;20388;-68
2024/04/03 02:15:55;;;;;;;;;;;;;;;;;;5095508;28;19908;-68
2024/04/03 02:18:21;;;;;;;;;;;;;;;;;;5095044;28;19985;-68
2024/04/03 02:20:47;;;;;;;;;;;;;;;;;;5095362;28;19908;-68
2024/04/03 02:23:13;;;;;;;;;;;;;;;;;;5095344;28;20374;-68
2024/04/03 02:25:39;;;;;;;;;;;;;;;;;;5093536;28;20342;-67
2024/04/03 02:28:05;;;;;;;;;;;;;;;;;;5095225;28;19912;-68
2024/04/03 02:30:31;;;;;;;;;;;;;;;;;;5095179;28;19908;-69
2024/04/03 02:32:57;;;;;;;;;;;;;;;;;;5094707;28;20011;-68
2024/04/03 02:35:23;;;;;;;;;;;;;;;;;;5095024;28;19912;-68
2024/04/03 02:37:48;;;;;;;;;;;;;;;;;;5095280;28;19958;-70
2024/04/03 02:40:14;;;;;;;;;;;;;;;;;;5094672;28;19908;-70
2024/04/03 02:42:40;;;;;;;;;;;;;;;;;;5094916;28;19934;-70
2024/04/03 02:45:06;;;;;;;;;;;;;;;;;;5094769;28;19971;-70
2024/04/03 02:47:32;;;;;;;;;;;;;;;;;;5094427;28;19908;-70
2024/04/03 02:49:58;;;;;;;;;;;;;;;;;;5094890;28;19919;-70
2024/04/03 02:52:24;;;;;;;;;;;;;;;;;;5093083;28;20053;-69
2024/04/03 02:54:50;;;;;;;;;;;;;;;;;;5094432;28;19908;-70
2024/04/03 02:57:16;;;;;;;;;;;;;;;;;;5094955;28;19915;-70
2024/04/03 02:59:42;;;;;;;;;;;;;;;;;;5094156;28;19994;-70
2024/04/03 03:02:08;;;;;;;;;;;;;;;;;;5094611;28;19961;-70
2024/04/03 03:04:34;;;;;;;;;;;;;;;;;;5094815;28;20364;-70
2024/04/03 03:07:00;;;;;;;;;;;;;;;;;;5094446;28;20334;-70
2024/04/03 03:09:26;;;;;;;;;;;;;;;;;;5094545;28;20371;-70
2024/04/03 03:11:52;;;;;;;;;;;;;;;;;;5094549;28;20385;-70
2024/04/03 03:14:18;;;;;;;;;;;;;;;;;;5093968;28;20483;-70
2024/04/03 03:16:43;;;;;;;;;;;;;;;;;;5093134;28;20364;-70
2024/04/03 03:19:09;;;;;;;;;;;;;;;;;;5094819;28;20330;-70
2024/04/03 03:21:35;;;;;;;;;;;;;;;;;;5094033;28;19909;-70
2024/04/03 03:24:01;;;;;;;;;;;;;;;;;;5093041;28;20007;-70
2024/04/03 03:26:27;;;;;;;;;;;;;;;;;;5092848;28;19916;-70
2024/04/03 03:28:53;;;;;;;;;;;;;;;;;;5092766;28;19909;-70
2024/04/03 03:31:19;;;;;;;;;;;;;;;;;;5094385;28;19915;-70
2024/04/03 03:33:45;;;;;;;;;;;;;;;;;;5094159;28;19944;-70
2024/04/03 03:36:11;;;;;;;;;;;;;;;;;;5093653;28;19908;-69
2024/04/03 03:38:37;;;;;;;;;;;;;;;;;;5093995;28;19953;-68
2024/04/03 03:41:03;;;;;;;;;;;;;;;;;;5094003;28;19908;-68
2024/04/03 03:43:29;;;;;;;;;;;;;;;;;;5093587;28;19915;-68
2024/04/03 03:45:55;;;;;;;;;;;;;;;;;;5093711;28;20392;-68
2024/04/03 03:52:35;;;;;;;;;;;;;;;;;;5092876;28;20379;-69
2024/04/03 03:53:51;;;;;;;;;;;;;;;;;;5093864;28;19915;-69
2024/04/03 03:56:17;;;;;;;;;;;;;;;;;;5093459;28;19908;-69
2024/04/03 03:58:43;;;;;;;;;;;;;;;;;;5093813;28;19908;-69
2024/04/03 04:01:09;;;;;;;;;;;;;;;;;;5092537;28;19908;-69
2024/04/03 04:03:35;;;;;;;;;;;;;;;;;;5092109;28;19957;-69
2024/04/03 04:06:01;;;;;;;;;;;;;;;;;;5094002;28;19966;-69
2024/04/03 04:08:27;;;;;;;;;;;;;;;;;;5095424;28;19908;-69
2024/04/03 04:10:53;;;;;;;;;;;;;;;;;;5096826;28;19908;-70
2024/04/03 04:13:19;;;;;;;;;;;;;;;;;;5096208;28;20025;-69
2024/04/03 04:15:44;;;;;;;;;;;;;;;;;;5097711;28;19915;-69
2024/04/03 04:18:11;;;;;;;;;;;;;;;;;;5097219;28;19915;-69
2024/04/03 04:20:37;;;;;;;;;;;;;;;;;;5097681;28;19915;-69
2024/04/03 04:23:03;;;;;;;;;;;;;;;;;;5097540;28;19908;-69
2024/04/03 04:25:29;;;;;;;;;;;;;;;;;;5097045;28;19920;-69
2024/04/03 04:27:55;;;;;;;;;;;;;;;;;;5097486;28;19908;-69
2024/04/03 04:30:21;;;;;;;;;;;;;;;;;;5095978;28;19934;-69
2024/04/03 04:32:46;;;;;;;;;;;;;;;;;;5094951;28;19916;-69
2024/04/03 04:35:12;;;;;;;;;;;;;;;;;;5094402;28;19908;-69
2024/04/03 04:37:38;;;;;;;;;;;;;;;;;;5095974;28;20053;-69
2024/04/03 04:40:07;;;;;;;;;;;;;;;;;;5094869;28;19923;-69
2024/04/03 04:42:33;;;;;;;;;;;;;;;;;;5096398;28;20277;-72
2024/04/03 04:44:59;;;;;;;;;;;;;;;;;;5094803;28;19927;-71
2024/04/03 04:47:25;;;;;;;;;;;;;;;;;;5097158;28;19954;-70
2024/04/03 04:49:51;;;;;;;;;;;;;;;;;;5097075;28;19912;-70
2024/04/03 04:52:17;;;;;;;;;;;;;;;;;;5095402;28;19908;-70
2024/04/03 04:54:43;;;;;;;;;;;;;;;;;;5097374;28;19962;-69
2024/04/03 04:57:10;;;;;;;;;;;;;;;;;;5096962;28;19908;-70
2024/04/03 04:59:36;;;;;;;;;;;;;;;;;;5095489;28;20324;-70
2024/04/03 05:02:02;;;;;;;;;;;;;;;;;;5097042;28;19909;-70
2024/04/03 05:04:28;;;;;;;;;;;;;;;;;;5096765;28;19909;-70
2024/04/03 05:06:57;;;;;;;;;;;;;;;;;;5095135;28;20009;-70
2024/04/03 05:09:23;;;;;;;;;;;;;;;;;;5096758;28;19912;-69
2024/04/03 05:11:49;;;;;;;;;;;;;;;;;;5096766;28;19919;-70
2024/04/03 05:14:15;;;;;;;;;;;;;;;;;;5096230;28;19908;-69
2024/04/03 05:16:41;;;;;;;;;;;;;;;;;;5096256;28;19908;-69
2024/04/03 05:19:08;;;;;;;;;;;;;;;;;;5096453;28;19991;-70
2024/04/03 05:21:35;;;;;;;;;;;;;;;;;;5094757;28;19908;-69
2024/04/03 05:24:01;;;;;;;;;;;;;;;;;;5094900;28;19946;-68
2024/04/03 05:26:27;;;;;;;;;;;;;;;;;;5102862;28;19996;-70
2024/04/03 05:28:53;;;;;;;;;;;;;;;;;;5098767;28;19912;-69
2024/04/03 05:31:20;;;;;;;;;;;;;;;;;;5097589;28;20261;-69
2024/04/03 05:33:46;;;;;;;;;;;;;;;;;;5104027;28;19912;-68
2024/04/03 05:36:12;;;;;;;;;;;;;;;;;;5095695;28;19916;-71
2024/04/03 05:38:38;;;;;;;;;;;;;;;;;;5099866;28;19927;-69
2024/04/03 05:41:04;;;;;;;;;;;;;;;;;;5101448;28;19915;-67
2024/04/03 05:43:30;;;;;;;;;;;;;;;;;;5100499;28;20372;-68
2024/04/03 05:45:56;;;;;;;;;;;;;;;;;;5096828;28;20287;-68
2024/04/03 05:48:22;;;;;;;;;;;;;;;;;;5102709;28;19919;-68
2024/04/03 05:50:48;;;;;;;;;;;;;;;;;;5103131;28;19999;-68
2024/04/03 05:53:14;;;;;;;;;;;;;;;;;;5104780;28;19915;-67
2024/04/03 05:55:40;;;;;;;;;;;;;;;;;;5109423;28;20390;-67
2024/04/03 05:58:06;;;;;;;;;;;;;;;;;;5104321;28;20337;-69
2024/04/03 06:00:36;;;;;;;;;;;;;;;;;;5094589;28;19920;-69
2024/04/03 06:03:02;;;;;;;;;;;;;;;;;;5090502;28;19911;-69
2024/04/03 06:05:28;;;;;;;;;;;;;;;;;;5106273;28;20395;-69
2024/04/03 06:07:59;;;;;;;;;;;;;;;;;;5108038;28;20364;-69
2024/04/03 06:10:25;;;;;;;;;;;;;;;;;;5113590;28;19918;-69
2024/04/03 06:12:51;;;;;;;;;;;;;;;;;;5113061;28;20011;-71
2024/04/03 06:15:16;;;;;;;;;;;;;;;;;;5093739;28;20344;-70
2024/04/03 06:17:42;;;;;;;;;;;;;;;;;;5091683;28;21238;-70
2024/04/03 06:20:08;;;;;;;;;;;;;;;;;;5095903;28;20284;-71
2024/04/03 06:22:34;;;;;;;;;;;;;;;;;;5114700;28;20261;-69
2024/04/03 06:25:00;;;;;;;;;;;;;;;;;;5114045;28;19916;-68
2024/04/03 06:27:26;;;;;;;;;;;;;;;;;;5107194;28;19970;-69
2024/04/03 06:29:52;;;;;;;;;;;;;;;;;;5094265;28;19916;-69
2024/04/03 06:32:18;;;;;;;;;;;;;;;;;;5102281;28;19947;-68
2024/04/03 06:34:44;;;;;;;;;;;;;;;;;;5091469;28;19966;-68
2024/04/03 06:37:10;;;;;;;;;;;;;;;;;;5091287;28;19916;-68
2024/04/03 06:39:36;;;;;;;;;;;;;;;;;;5091546;28;20002;-68
2024/04/03 06:42:02;;;;;;;;;;;;;;;;;;5095000;28;19912;-68
2024/04/03 06:44:28;;;;;;;;;;;;;;;;;;5094183;28;19920;-69
2024/04/03 06:47:00;;;;;;;;;;;;;;;;;;5107919;28;19988;-69
2024/04/03 06:49:27;;;;;;;;;;;;;;;;;;5093646;28;20477;-69
2024/04/03 06:51:53;;;;;;;;;;;;;;;;;;5113683;28;20371;-69
2024/04/03 06:54:19;;;;;;;;;;;;;;;;;;5112074;28;19912;-68
2024/04/03 06:56:46;;;;;;;;;;;;;;;;;;5089779;28;19923;-69
2024/04/03 06:59:13;;;;;;;;;;;;;;;;;;5083308;28;19912;-68
2024/04/03 07:01:39;;;;;;;;;;;;;;;;;;5092748;28;19916;-68
2024/04/03 07:04:05;;;;;;;;;;;;;;;;;;5090387;28;20053;-67
2024/04/03 07:06:33;;;;;;;;;;;;;;;;;;5093379;28;19976;-68
2024/04/03 07:08:58;;;;;;;;;;;;;;;;;;5088571;28;19920;-69
2024/04/03 07:11:24;;;;;;;;;;;;;;;;;;5095758;28;19917;-70
2024/04/03 07:13:50;;;;;;;;;;;;;;;;;;5081027;28;19912;-69
2024/04/03 07:16:16;;;;;;;;;;;;;;;;;;5112264;28;20037;-70
2024/04/03 07:18:42;;;;;;;;;;;;;;;;;;5105709;28;19919;-68
2024/04/03 07:21:08;;;;;;;;;;;;;;;;;;5094280;28;19916;-70
2024/04/03 07:23:34;;;;;;;;;;;;;;;;;;5101002;28;19926;-71
2024/04/03 07:26:00;;;;;;;;;;;;;;;;;;5095319;28;19951;-69
2024/04/03 07:28:29;;;;;;;;;;;;;;;;;;5100060;28;19911;-69
2024/04/03 07:30:57;;;;;;;;;;;;;;;;;;5108350;28;19912;-70
2024/04/03 07:33:23;;;;;;;;;;;;;;;;;;5098722;28;19912;-69
2024/04/03 07:35:49;;;;;;;;;;;;;;;;;;5083702;28;19923;-69
2024/04/03 07:38:15;;;;;;;;;;;;;;;;;;5089079;28;19916;-70
2024/04/03 07:40:41;;;;;;;;;;;;;;;;;;5095657;28;19957;-68
2024/04/03 07:43:07;;;;;;;;;;;;;;;;;;5091087;28;20440;-68
2024/04/03 07:45:33;;;;;;;;;;;;;;;;;;5087764;28;20256;-69
2024/04/03 07:47:59;;;;;;;;;;;;;;;;;;5085620;28;19991;-69
2024/04/03 07:50:25;;;;;;;;;;;;;;;;;;5085293;28;20011;-70
2024/04/03 07:52:51;;;;;;;;;;;;;;;;;;5087074;28;19924;-69
2024/04/03 07:55:17;;;;;;;;;;;;;;;;;;5091046;28;19919;-69
2024/04/03 07:57:43;;;;;;;;;;;;;;;;;;5087434;28;20266;-69
2024/04/03 08:03:29;;;;;;;;;;;;;;;;;;5084143;27;19921;-70
2024/04/03 08:06:32;;;;;;;;;;;;;;;;;;5087959;27;19916;-69
2024/04/03 08:11:10;;;;;;;;;;;;;;;;;;5086156;28;20283;-68
2024/04/03 08:13:36;;;;;;;;;;;;;;;;;;5084364;28;19912;-69
2024/04/03 08:16:02;;;;;;;;;;;;;;;;;;5084599;28;19913;-69
2024/04/03 08:20:51;;;;;;;;;;;;;;;;;;5125115;27;19916;-69
2024/04/03 08:23:17;;;;;;;;;;;;;;;;;;5123561;28;19918;-69
2024/04/03 08:25:43;;;;;;;;;;;;;;;;;;5122252;28;19916;-68
2024/04/03 08:28:09;;;;;;;;;;;;;;;;;;5120537;28;19919;-70
2024/04/03 08:30:46;;;;;;;;;;;;;;;;;;5147772;27;19912;-69
2024/04/03 08:33:12;;;;;;;;;;;;;;;;;;5139881;27;19947;-69
2024/04/03 08:37:55;;;;;;;;;;;;;;;;;;5115936;27;20285;-69
2024/04/03 08:40:22;;;;;;;;;;;;;;;;;;5088690;28;19919;-69
2024/04/03 08:45:30;;;;;;;;;;;;;;;;;;5099786;27;19920;-68
2024/04/03 08:47:56;;;;;;;;;;;;;;;;;;5089298;28;19918;-67
2024/04/03 08:50:22;;;;;;;;;;;;;;;;;;5106397;28;20386;-69
2024/04/03 08:52:48;;;;;;;;;;;;;;;;;;5095006;28;20017;-69
2024/04/03 08:55:14;;;;;;;;;;;;;;;;;;5095301;28;20434;-69
2024/04/03 08:57:40;;;;;;;;;;;;;;;;;;5099218;28;19971;-69
2024/04/03 09:00:08;;;;;;;;;;;;;;;;;;5096305;28;19912;-70
2024/04/03 09:04:00;;;;;;;;;;;;;;;;;;5083991;28;19913;-67
2024/04/03 09:10:28;;;;;;;;;;;;;;;;;;5086513;27;19921;-67
2024/04/03 09:12:54;;;;;;;;;;;;;;;;;;5095076;28;19912;-67
2024/04/03 09:18:53;;;;;;;;;;;;;;;;;;5090144;27;19912;-68
2024/04/03 09:21:19;;;;;;;;;;;;;;;;;;5085256;28;19966;-67
2024/04/03 09:23:46;;;;;;;;;;;;;;;;;;5077708;28;19935;-68
2024/04/03 09:26:12;;;;;;;;;;;;;;;;;;5090167;28;19938;-70
2024/04/03 09:28:38;;;;;;;;;;;;;;;;;;5079252;28;20381;-69
2024/04/03 09:31:40;;;;;;;;;;;;;;;;;;5085883;27;19927;-69
2024/04/03 09:34:06;;;;;;;;;;;;;;;;;;5085233;28;19916;-68
2024/04/03 09:37:37;;;;;;;;;;;;;;;;;;5087950;27;19962;-68
2024/04/03 09:42:38;;;;;;;;;;;;;;;;;;5113146;27;19926;-69
2024/04/03 09:45:23;;;;;;;;;;;;;;;;;;5108869;27;19938;-67
2024/04/03 09:47:49;;;;;;;;;;;;;;;;;;5107259;28;19915;-68
2024/04/03 09:50:15;;;;;;;;;;;;;;;;;;5106015;28;20002;-68
2024/04/03 09:52:41;;;;;;;;;;;;;;;;;;5105365;28;19922;-68
2024/04/03 09:55:08;;;;;;;;;;;;;;;;;;5101862;27;20425;-71
2024/04/03 09:57:33;;;;;;;;;;;;;;;;;;5094284;28;19930;-72
2024/04/03 09:59:59;;;;;;;;;;;;;;;;;;5099942;28;20415;-72
2024/04/03 10:02:25;;;;;;;;;;;;;;;;;;5104083;28;20394;-72
2024/04/03 10:04:51;;;;;;;;;;;;;;;;;;5105216;28;20285;-71
2024/04/03 10:07:17;;;;;;;;;;;;;;;;;;5105207;28;19963;-72
2024/04/03 10:09:43;;;;;;;;;;;;;;;;;;5105067;28;19916;-71
2024/04/03 10:13:54;;;;;;;;;;;;;;;;;;5087226;27;19926;-71
2024/04/03 10:18:09;;;;;;;;;;;;;;;;;;5092043;27;19920;-71
2024/04/03 10:20:35;;;;;;;;;;;;;;;;;;5092613;28;20391;-71
2024/04/03 10:23:00;;;;;;;;;;;;;;;;;;5098843;28;19923;-71
2024/04/03 10:25:26;;;;;;;;;;;;;;;;;;5109739;28;19917;-72
2024/04/03 10:27:53;;;;;;;;;;;;;;;;;;5108875;28;19934;-72
2024/04/03 10:30:19;;;;;;;;;;;;;;;;;;5106357;28;19922;-72
2024/04/03 10:33:20;;;;;;;;;;;;;;;;;;5118806;27;19912;-71
2024/04/03 10:35:46;;;;;;;;;;;;;;;;;;5107761;28;19946;-71
2024/04/03 10:41:04;;;;;;;;;;;;;;;;;;5119963;27;19920;-71
2024/04/03 10:43:47;;;;;;;;;;;;;;;;;;5101573;27;19923;-69
2024/04/03 10:46:13;;;;;;;;;;;;;;;;;;5104346;28;20376;-68
2024/04/03 10:51:03;;;;;;;;;;;;;;;;;;5103326;27;19924;-70
2024/04/03 10:53:29;;;;;;;;;;;;;;;;;;5107128;28;19927;-70
2024/04/03 10:55:55;;;;;;;;;;;;;;;;;;5125967;28;19915;-69
2024/04/03 11:01:05;;;;;;;;;;;;;;;;;;5154342;27;19926;-70
2024/04/03 11:03:31;;;;;;;;;;;;;;;;;;5137972;27;19941;-69
2024/04/03 11:05:57;;;;;;;;;;;;;;;;;;5148200;27;19914;-71
2024/04/03 11:08:22;;;;;;;;;;;;;;;;;;5148622;27;19922;-72
2024/04/03 11:12:05;;;;;;;;;;;;;;;;;;5110727;27;19938;-72
2024/04/03 11:14:31;;;;;;;;;;;;;;;;;;5119038;27;20321;-71
2024/04/03 11:19:05;;;;;;;;;;;;;;;;;;5107991;27;19926;-70
2024/04/03 11:23:13;;;;;;;;;;;;;;;;;;5138718;27;19916;-70
2024/04/03 11:25:39;;;;;;;;;;;;;;;;;;5107144;28;19912;-69
2024/04/03 11:28:05;;;;;;;;;;;;;;;;;;5107689;28;19908;-69
2024/04/03 11:32:55;;;;;;;;;;;;;;;;;;5115091;27;19920;-70
2024/04/03 11:36:02;;;;;;;;;;;;;;;;;;5070025;27;19923;-68
2024/04/03 11:38:30;;;;;;;;;;;;;;;;;;5070591;28;20288;-67
2024/04/03 11:40:56;;;;;;;;;;;;;;;;;;5063130;28;19971;-68
2024/04/03 11:43:23;;;;;;;;;;;;;;;;;;5052814;28;19917;-68
2024/04/03 11:45:48;;;;;;;;;;;;;;;;;;5061454;28;20003;-69
2024/04/03 11:48:44;;;;;;;;;;;;;;;;;;5109989;27;19916;-68
2024/04/03 11:51:10;;;;;;;;;;;;;;;;;;5117611;28;19912;-69
2024/04/03 11:53:36;;;;;;;;;;;;;;;;;;5120858;27;19915;-69
2024/04/03 11:56:02;;;;;;;;;;;;;;;;;;5107426;28;19908;-70
2024/04/03 11:58:28;;;;;;;;;;;;;;;;;;5120663;28;20006;-70
2024/04/03 12:00:54;;;;;;;;;;;;;;;;;;5106949;28;19915;-69
2024/04/03 12:03:20;;;;;;;;;;;;;;;;;;5116471;28;19908;-69
2024/04/03 12:05:46;;;;;;;;;;;;;;;;;;5127456;28;19912;-69
2024/04/03 12:08:14;;;;;;;;;;;;;;;;;;5128225;28;19960;-68
2024/04/03 12:10:41;;;;;;;;;;;;;;;;;;5129479;28;19908;-68
2024/04/03 12:13:10;;;;;;;;;;;;;;;;;;5129579;28;19908;-68
2024/04/03 12:15:36;;;;;;;;;;;;;;;;;;5120407;28;20333;-69
2024/04/03 12:22:19;;;;;;;;;;;;;;;;;;5120418;28;19996;-67
2024/04/03 12:24:46;;;;;;;;;;;;;;;;;;5113998;28;19965;-67
2024/04/03 12:27:18;;;;;;;;;;;;;;;;;;5125969;28;19947;-68
2024/04/03 12:29:44;;;;;;;;;;;;;;;;;;5129018;27;19926;-67
2024/04/03 12:34:40;;;;;;;;;;;;;;;;;;5070947;28;19921;-67
2024/04/03 12:37:06;;;;;;;;;;;;;;;;;;5069025;28;20000;-68
2024/04/03 12:39:32;;;;;;;;;;;;;;;;;;5070790;28;19908;-68
2024/04/03 12:41:58;;;;;;;;;;;;;;;;;;5070605;28;19909;-69
2024/04/03 12:44:24;;;;;;;;;;;;;;;;;;5049199;28;19935;-68
2024/04/03 12:46:50;;;;;;;;;;;;;;;;;;5069352;28;19916;-68
2024/04/03 12:49:16;;;;;;;;;;;;;;;;;;5060347;28;20434;-67
2024/04/03 12:51:42;;;;;;;;;;;;;;;;;;5068000;28;19968;-67
2024/04/03 12:55:10;;;;;;;;;;;;;;;;;;5081612;27;19922;-67
2024/04/03 12:57:37;;;;;;;;;;;;;;;;;;5087892;28;19913;-68
2024/04/03 13:00:03;;;;;;;;;;;;;;;;;;5109469;28;19930;-69
2024/04/03 13:02:29;;;;;;;;;;;;;;;;;;5096680;28;19939;-71
2024/04/03 13:04:55;;;;;;;;;;;;;;;;;;5088230;28;19909;-71
2024/04/03 13:07:21;;;;;;;;;;;;;;;;;;5089171;28;20357;-71
2024/04/03 13:09:47;;;;;;;;;;;;;;;;;;5089779;28;19912;-71
2024/04/03 13:12:13;;;;;;;;;;;;;;;;;;5089268;28;19915;-70
2024/04/03 13:14:39;;;;;;;;;;;;;;;;;;5089486;28;19917;-71
2024/04/03 13:17:05;;;;;;;;;;;;;;;;;;5089197;28;19919;-71
2024/04/03 13:19:31;;;;;;;;;;;;;;;;;;5088374;28;19921;-71
2024/04/03 13:21:57;;;;;;;;;;;;;;;;;;5088860;28;19962;-71
2024/04/03 13:24:23;;;;;;;;;;;;;;;;;;5087444;28;19916;-71
2024/04/03 13:26:49;;;;;;;;;;;;;;;;;;5087068;28;19908;-71
2024/04/03 13:29:14;;;;;;;;;;;;;;;;;;5087552;28;19912;-72
2024/04/03 13:31:40;;;;;;;;;;;;;;;;;;5089927;28;19908;-71
2024/04/03 13:34:08;;;;;;;;;;;;;;;;;;5089148;28;20340;-71
2024/04/03 13:36:34;;;;;;;;;;;;;;;;;;5090755;28;20004;-71
2024/04/03 13:39:03;;;;;;;;;;;;;;;;;;5090541;28;19952;-71
2024/04/03 13:41:29;;;;;;;;;;;;;;;;;;5088832;28;20299;-71
2024/04/03 13:43:55;;;;;;;;;;;;;;;;;;5090763;28;20011;-71
2024/04/03 13:46:20;;;;;;;;;;;;;;;;;;5088738;28;19908;-71
2024/04/03 13:48:46;;;;;;;;;;;;;;;;;;5090295;28;19909;-71
2024/04/03 13:51:12;;;;;;;;;;;;;;;;;;5090586;28;19915;-71
2024/04/03 13:53:38;;;;;;;;;;;;;;;;;;5097819;28;19974;-71
2024/04/03 13:56:04;;;;;;;;;;;;;;;;;;5111006;28;20305;-71
2024/04/03 13:58:30;;;;;;;;;;;;;;;;;;5110373;28;20393;-71
2024/04/03 14:01:01;;;;;;;;;;;;;;;;;;5109987;28;19908;-70
2024/04/03 14:03:27;;;;;;;;;;;;;;;;;;5110350;28;20327;-71
2024/04/03 14:05:53;;;;;;;;;;;;;;;;;;5099953;28;19908;-71
2024/04/03 14:08:19;;;;;;;;;;;;;;;;;;5096396;28;19961;-70
2024/04/03 14:10:45;;;;;;;;;;;;;;;;;;5078525;28;19912;-70
2024/04/03 14:13:11;;;;;;;;;;;;;;;;;;5078493;28;19912;-69
2024/04/03 14:15:37;;;;;;;;;;;;;;;;;;5078052;28;19981;-70
2024/04/03 14:18:03;;;;;;;;;;;;;;;;;;5096533;28;20006;-70
2024/04/03 14:20:29;;;;;;;;;;;;;;;;;;5096611;28;19912;-70
2024/04/03 14:22:55;;;;;;;;;;;;;;;;;;5096127;28;20003;-70
2024/04/03 14:25:20;;;;;;;;;;;;;;;;;;5096391;28;19917;-70
2024/04/03 14:27:46;;;;;;;;;;;;;;;;;;5078246;28;20023;-71
2024/04/03 14:30:13;;;;;;;;;;;;;;;;;;5096130;28;20394;-71
2024/04/03 14:32:39;;;;;;;;;;;;;;;;;;5096310;28;19908;-71
2024/04/03 14:35:09;;;;;;;;;;;;;;;;;;5096544;28;19923;-70
2024/04/03 14:37:35;;;;;;;;;;;;;;;;;;5095831;28;19929;-70
2024/04/03 14:40:03;;;;;;;;;;;;;;;;;;5096207;28;19908;-70
2024/04/03 14:42:29;;;;;;;;;;;;;;;;;;5078024;28;19908;-70
2024/04/03 14:44:55;;;;;;;;;;;;;;;;;;5095663;28;19918;-70
2024/04/03 14:47:21;;;;;;;;;;;;;;;;;;5096008;28;19962;-70
2024/04/03 14:49:47;;;;;;;;;;;;;;;;;;5095614;28;19912;-70
2024/04/03 14:52:13;;;;;;;;;;;;;;;;;;5095721;28;19908;-70
2024/04/03 14:54:39;;;;;;;;;;;;;;;;;;5095611;28;19942;-70
2024/04/03 14:57:05;;;;;;;;;;;;;;;;;;5095177;28;20015;-70
2024/04/03 14:59:32;;;;;;;;;;;;;;;;;;5095670;28;19908;-70
2024/04/03 15:01:58;;;;;;;;;;;;;;;;;;5095364;28;19956;-70
2024/04/03 15:04:24;;;;;;;;;;;;;;;;;;5094288;28;20011;-70
2024/04/03 15:06:50;;;;;;;;;;;;;;;;;;5094147;28;19951;-70
2024/04/03 15:09:16;;;;;;;;;;;;;;;;;;5093675;28;19908;-70
2024/04/03 15:11:43;;;;;;;;;;;;;;;;;;5094868;28;19916;-70
2024/04/03 15:14:09;;;;;;;;;;;;;;;;;;5095309;28;19947;-69
2024/04/03 15:16:35;;;;;;;;;;;;;;;;;;5094341;28;19954;-69
2024/04/03 15:19:49;;;;;;;;;;;;;;;;;;5090832;27;19916;-69
2024/04/03 15:22:15;;;;;;;;;;;;;;;;;;5091236;28;20418;-70
2024/04/03 15:24:40;;;;;;;;;;;;;;;;;;5091086;28;19915;-70
2024/04/03 15:27:06;;;;;;;;;;;;;;;;;;5090797;28;19909;-69
2024/04/03 15:29:33;;;;;;;;;;;;;;;;;;5090639;28;19953;-70
2024/04/03 15:32:02;;;;;;;;;;;;;;;;;;5087448;28;19970;-70
2024/04/03 15:34:29;;;;;;;;;;;;;;;;;;5090301;28;20272;-70
2024/04/03 15:39:24;;;;;;;;;;;;;;;;;;4967688;28;19919;-70
2024/04/03 15:41:50;;;;;;;;;;;;;;;;;;4967592;28;19993;-69
2024/04/03 15:44:18;;;;;;;;;;;;;;;;;;4968847;28;19917;-70
2024/04/03 15:46:44;;;;;;;;;;;;;;;;;;4967959;28;19917;-69
2024/04/03 15:49:10;;;;;;;;;;;;;;;;;;4968627;28;19911;-69
2024/04/03 15:54:02;;;;;;;;;;;;;;;;;;5089804;27;19922;-69
2024/04/03 15:56:28;;;;;;;;;;;;;;;;;;5089519;28;19999;-69
2024/04/03 15:58:54;;;;;;;;;;;;;;;;;;5089468;28;19962;-70
2024/04/03 16:01:20;;;;;;;;;;;;;;;;;;5090376;28;19915;-71
2024/04/03 16:05:21;;;;;;;;;;;;;;;;;;5090899;27;19922;-69
2024/04/03 16:08:30;;;;;;;;;;;;;;;;;;5110104;27;19923;-69
2024/04/03 16:10:56;;;;;;;;;;;;;;;;;;5110252;28;19918;-71
2024/04/03 16:13:23;;;;;;;;;;;;;;;;;;5110200;28;19908;-71
2024/04/03 16:17:11;;;;;;;;;;;;;;;;;;5091515;28;19923;-70
2024/04/03 16:19:37;;;;;;;;;;;;;;;;;;5091373;28;20014;-70
2024/04/03 16:22:03;;;;;;;;;;;;;;;;;;5090994;28;19909;-70
2024/04/03 16:24:29;;;;;;;;;;;;;;;;;;5090990;28;20307;-70
2024/04/03 16:28:45;;;;;;;;;;;;;;;;;;5123007;27;19916;-71
2024/04/03 16:31:11;;;;;;;;;;;;;;;;;;5107691;27;19912;-71
2024/04/03 16:34:54;;;;;;;;;;;;;;;;;;5090572;27;20388;-71
2024/04/03 16:37:20;;;;;;;;;;;;;;;;;;5088335;28;19999;-70
2024/04/03 16:39:46;;;;;;;;;;;;;;;;;;5090062;28;20425;-69
2024/04/03 16:42:12;;;;;;;;;;;;;;;;;;5087479;28;20361;-70
2024/04/03 16:47:10;;;;;;;;;;;;;;;;;;5088363;28;19919;-71
2024/04/03 16:49:36;;;;;;;;;;;;;;;;;;5087952;28;19912;-69
2024/04/03 17:00:43;;;;;;;;;;;;;;;;;;5111448;27;19912;-71
2024/04/03 17:05:23;;;;;;;;;;;;;;;;;;5070352;28;19919;-69
2024/04/03 17:16:18;;;;;;;;;;;;;;;;;;5090959;27;19927;-70
2024/04/03 17:18:44;;;;;;;;;;;;;;;;;;5090703;28;20004;-70
2024/04/03 17:21:10;;;;;;;;;;;;;;;;;;5091106;28;20015;-70
2024/04/03 17:23:36;;;;;;;;;;;;;;;;;;5091057;28;19962;-70
2024/04/03 17:26:02;;;;;;;;;;;;;;;;;;5090719;28;20327;-71
2024/04/03 17:28:28;;;;;;;;;;;;;;;;;;5091290;28;19912;-71
2024/04/03 17:35:09;;;;;;;;;;;;;;;;;;5111793;27;19915;-70
2024/04/03 17:37:35;;;;;;;;;;;;;;;;;;5111577;28;20361;-70
2024/04/03 17:41:48;;;;;;;;;;;;;;;;;;5092157;27;19919;-70
2024/04/03 17:44:14;;;;;;;;;;;;;;;;;;5091366;28;19999;-71
2024/04/03 17:46:40;;;;;;;;;;;;;;;;;;5091023;28;19908;-71
2024/04/03 17:51:04;;;;;;;;;;;;;;;;;;5174384;27;19915;-70
2024/04/03 17:53:30;;;;;;;;;;;;;;;;;;5154652;27;19993;-71
2024/04/03 17:55:56;;;;;;;;;;;;;;;;;;5173918;27;20328;-70
2024/04/03 17:58:22;;;;;;;;;;;;;;;;;;5173830;27;19920;-70
2024/04/03 18:00:48;;;;;;;;;;;;;;;;;;5173189;27;19910;-71
2024/04/03 18:03:52;;;;;;;;;;;;;;;;;;5112284;27;19922;-71
2024/04/03 18:06:18;;;;;;;;;;;;;;;;;;5110525;28;19998;-69
2024/04/03 18:13:25;;;;;;;;;;;;;;;;;;5091242;27;20402;-69
2024/04/03 18:15:51;;;;;;;;;;;;;;;;;;5090853;28;19912;-69
2024/04/03 18:18:17;;;;;;;;;;;;;;;;;;5091145;28;19908;-69
2024/04/03 18:20:43;;;;;;;;;;;;;;;;;;5090900;28;19912;-69
2024/04/03 18:23:28;;;;;;;;;;;;;;;;;;5091252;27;19913;-68
2024/04/03 18:25:54;;;;;;;;;;;;;;;;;;5091366;28;20456;-68